Terminal Aerodrome Forecast
Issued by NWS Wilmington, OH

Current Version | Previous Version | Graphics & Text | Print | Product List | Glossary On
Versions: 1 2 3 4 5 6 7 8 9 10 11 12 13 14 15
000
FTUS41 KILN 012200 AAA
TAFDAY
TAF AMD
KDAY 012219Z 0122/0218 34004KT 1SM BR BKN007 OVC035
     FM012300 30006KT 2SM BR OVC025
     FM020200 29008KT P6SM BKN035
     FM020400 29008KT P6SM BKN015
     FM021400 31005KT P6SM SCT020
      TEMPO 0214/0218 BKN020=

USA.gov is the U.S. government's official web portal to all federal, state and local government web resources and services.